createdAt,value
2019-02-15T00:00:43.268Z,102363.34
2019-02-15T00:03:12.910Z,102355.08
2019-02-15T00:05:42.227Z,102356.10
2019-02-15T00:08:11.587Z,102351.80
2019-02-15T00:10:40.950Z,102355.08
2019-02-15T00:13:13.531Z,102356.43
2019-02-15T00:15:41.358Z,102347.84
2019-02-15T00:18:15.702Z,102347.06
2019-02-15T00:20:46.774Z,102342.37
2019-02-15T00:23:16.432Z,102345.95
2019-02-15T00:25:45.777Z,102348.42
2019-02-15T00:28:15.103Z,102347.68
2019-02-15T00:30:44.729Z,102344.42
2019-02-15T00:33:14.036Z,102348.53
2019-02-15T00:35:43.633Z,102344.73
2019-02-15T00:38:12.998Z,102351.44
2019-02-15T00:40:42.566Z,102346.46
2019-02-15T00:43:11.903Z,102344.19
2019-02-15T00:45:43.138Z,102341.19
2019-02-15T00:48:17.090Z,102347.31
2019-02-15T00:50:48.300Z,102337.14
2019-02-15T00:53:35.418Z,102352.23
2019-02-15T00:56:07.463Z,102346.49
2019-02-15T00:58:38.705Z,102346.27
2019-02-15T01:01:10.031Z,102348.52
2019-02-15T01:03:46.955Z,102347.05
2019-02-15T01:06:20.870Z,102349.20
2019-02-15T01:09:09.650Z,102342.17
2019-02-15T01:11:49.823Z,102349.84
2019-02-15T01:14:19.408Z,102348.52
2019-02-15T01:16:49.121Z,102348.30
2019-02-15T01:19:18.728Z,102344.05
2019-02-15T01:21:48.571Z,102345.03
2019-02-15T01:24:17.920Z,102344.66
2019-02-15T01:26:48.900Z,102349.91
2019-02-15T01:29:19.925Z,102348.90
2019-02-15T01:32:06.795Z,102343.80
2019-02-15T01:34:37.747Z,102346.98
2019-02-15T01:37:17.510Z,102348.75
2019-02-15T01:39:48.477Z,102345.55
2019-02-15T01:42:29.052Z,102349.84
2019-02-15T01:45:00.539Z,102344.55
2019-02-15T01:47:30.007Z,102345.97
2019-02-15T01:50:00.922Z,102341.42
2019-02-15T01:52:30.297Z,102345.39
2019-02-15T01:54:59.627Z,102352.66
2019-02-15T01:57:28.971Z,102344.47
2019-02-15T01:59:58.338Z,102345.86
2019-02-15T02:02:29.676Z,102347.47
2019-02-15T02:04:58.991Z,102346.68
2019-02-15T02:07:28.420Z,102343.64
2019-02-15T02:09:58.196Z,102343.19
2019-02-15T02:12:27.523Z,102335.89
2019-02-15T02:14:56.879Z,102328.41
2019-02-15T02:17:26.607Z,102337.10
2019-02-15T02:19:55.993Z,102330.34
2019-02-15T02:22:25.330Z,102338.59
2019-02-15T02:24:54.652Z,102329.23
2019-02-15T02:27:24.002Z,102322.77
2019-02-15T02:29:53.426Z,102320.22
2019-02-15T02:32:23.126Z,102327.11
2019-02-15T02:34:59.895Z,102325.94
2019-02-15T02:37:29.336Z,102329.70
2019-02-15T02:39:59.014Z,102321.10
2019-02-15T02:42:28.611Z,102321.39
2019-02-15T02:44:58.004Z,102323.11
2019-02-15T02:47:27.422Z,102312.24
2019-02-15T02:49:56.754Z,102323.19
2019-02-15T02:52:26.179Z,102314.45
2019-02-15T02:54:55.578Z,102315.31
2019-02-15T02:57:25.334Z,102316.73
2019-02-15T02:59:54.663Z,102314.11
2019-02-15T03:02:24.049Z,102312.77
2019-02-15T03:04:53.363Z,102310.52
2019-02-15T03:07:23.055Z,102305.79
2019-02-15T03:09:52.510Z,102306.66
2019-02-15T03:12:22.322Z,102300.13
2019-02-15T03:14:51.637Z,102302.88
2019-02-15T03:17:21.492Z,102303.89
2019-02-15T03:19:50.896Z,102298.82
2019-02-15T03:22:20.725Z,102306.58
2019-02-15T03:24:50.058Z,102306.69
2019-02-15T03:27:19.438Z,102305.97
2019-02-15T03:29:49.119Z,102308.11
2019-02-15T03:32:18.437Z,102306.27
2019-02-15T03:34:47.736Z,102308.41
2019-02-15T03:37:24.767Z,102306.59
2019-02-15T03:39:55.770Z,102312.73
2019-02-15T03:42:25.250Z,102310.21
2019-02-15T03:44:54.639Z,102310.97
2019-02-15T03:47:24.844Z,102306.48
2019-02-15T03:49:54.187Z,102315.45
2019-02-15T03:52:23.512Z,102313.39
2019-02-15T03:54:52.896Z,102311.52
2019-02-15T03:57:22.263Z,102305.21
2019-02-15T03:59:52.215Z,102310.70
2019-02-15T04:02:21.646Z,102314.32
2019-02-15T04:04:51.040Z,102314.84
2019-02-15T04:07:20.417Z,102307.73
2019-02-15T04:09:50.122Z,102304.24
2019-02-15T04:12:19.439Z,102310.31
2019-02-15T04:14:48.775Z,102307.83
2019-02-15T04:17:18.108Z,102308.63
2019-02-15T04:19:48.217Z,102305.83
2019-02-15T04:22:17.536Z,102303.34
2019-02-15T04:24:47.109Z,102305.70
2019-02-15T04:27:16.506Z,102304.52
2019-02-15T04:29:46.113Z,102303.07
2019-02-15T04:32:16.034Z,102307.34
2019-02-15T04:34:45.328Z,102305.07
2019-02-15T04:37:14.693Z,102300.44
2019-02-15T04:39:44.381Z,102301.37
2019-02-15T04:42:13.973Z,102302.05
2019-02-15T04:44:43.564Z,102312.16
2019-02-15T04:47:12.961Z,102306.98
2019-02-15T04:49:42.398Z,102309.22
2019-02-15T04:52:11.929Z,102309.25
2019-02-15T04:54:41.770Z,102304.87
2019-02-15T04:57:11.420Z,102300.63
2019-02-15T04:59:41.205Z,102299.55
2019-02-15T05:02:10.824Z,102299.64
2019-02-15T05:04:40.427Z,102296.45
2019-02-15T05:07:09.737Z,102304.48
2019-02-15T05:09:44.254Z,102307.10
2019-02-15T05:12:13.285Z,102306.13
2019-02-15T05:14:52.465Z,102301.75
2019-02-15T05:17:14.223Z,102298.10
2019-02-15T05:19:43.677Z,102304.28
2019-02-15T05:22:12.995Z,102301.59
2019-02-15T05:24:42.321Z,102304.41
2019-02-15T05:27:11.686Z,102314.27
2019-02-15T05:29:41.077Z,102309.02
2019-02-15T05:32:10.837Z,102306.40
2019-02-15T05:34:40.404Z,102309.02
2019-02-15T05:37:09.730Z,102308.58
2019-02-15T05:39:39.068Z,102312.95
2019-02-15T05:42:08.424Z,102308.29
2019-02-15T05:44:38.491Z,102310.30
2019-02-15T05:47:08.288Z,102312.73
2019-02-15T05:49:37.984Z,102313.63
2019-02-15T05:52:07.919Z,102306.19
2019-02-15T05:54:37.278Z,102303.41
2019-02-15T05:57:06.590Z,102310.38
2019-02-15T05:59:35.890Z,102314.89
2019-02-15T06:02:05.618Z,102314.50
2019-02-15T06:04:35.023Z,102319.64
2019-02-15T06:07:04.358Z,102322.36
2019-02-15T06:09:33.770Z,102319.36
2019-02-15T06:12:03.631Z,102319.36
2019-02-15T06:14:33.426Z,102315.40
2019-02-15T06:17:03.187Z,102323.35
2019-02-15T06:19:33.435Z,102318.56
2019-02-15T06:22:04.268Z,102325.46
2019-02-15T06:24:33.587Z,102320.34
2019-02-15T06:27:02.989Z,102324.15
2019-02-15T06:29:32.417Z,102323.83
2019-02-15T06:32:02.165Z,102327.12
2019-02-15T06:34:31.473Z,102322.72
2019-02-15T06:37:03.630Z,102323.38
2019-02-15T06:39:33.047Z,102329.27
2019-02-15T06:42:02.725Z,102336.55
2019-02-15T06:44:32.070Z,102332.20
2019-02-15T06:47:01.440Z,102333.19
2019-02-15T06:49:31.171Z,102335.75
2019-02-15T06:52:02.047Z,102332.83
2019-02-15T06:54:31.761Z,102338.17
2019-02-15T06:57:01.385Z,102333.66
2019-02-15T06:59:45.512Z,102335.35
2019-02-15T07:02:28.372Z,102339.88
2019-02-15T07:05:08.356Z,102333.54
2019-02-15T07:07:38.004Z,102336.71
2019-02-15T07:10:08.220Z,102336.92
2019-02-15T07:12:37.834Z,102344.48
2019-02-15T07:15:08.352Z,102343.58
2019-02-15T07:17:37.972Z,102348.24
2019-02-15T07:20:10.051Z,102346.55
2019-02-15T07:22:39.383Z,102348.52
2019-02-15T07:25:11.819Z,102351.28
2019-02-15T07:27:41.165Z,102351.14
2019-02-15T07:30:15.642Z,102347.52
2019-02-15T07:32:45.087Z,102355.90
2019-02-15T07:35:14.733Z,102357.83
2019-02-15T07:37:44.154Z,102352.63
2019-02-15T07:40:13.840Z,102351.95
2019-02-15T07:42:43.156Z,102360.09
2019-02-15T07:45:12.486Z,102353.09
2019-02-15T07:47:42.151Z,102351.03
2019-02-15T07:50:15.507Z,102348.90
2019-02-15T07:52:44.904Z,102349.76
2019-02-15T07:55:14.559Z,102348.30
2019-02-15T07:57:43.918Z,102344.20
2019-02-15T08:00:15.148Z,102344.09
2019-02-15T08:02:44.817Z,102335.53
2019-02-15T08:05:14.151Z,102340.64
2019-02-15T08:07:43.845Z,102339.38
2019-02-15T08:10:13.503Z,102340.08
2019-02-15T08:12:43.128Z,102342.55
2019-02-15T08:15:12.536Z,102346.38
2019-02-15T08:17:41.938Z,102333.97
2019-02-15T08:20:12.577Z,102337.79
2019-02-15T08:22:42.018Z,102337.91
2019-02-15T08:25:11.371Z,102331.00
2019-02-15T08:27:41.006Z,102333.09
2019-02-15T08:30:11.907Z,102332.27
2019-02-15T08:32:41.524Z,102334.67
2019-02-15T08:35:11.947Z,102331.00
2019-02-15T08:37:41.322Z,102332.19
2019-02-15T08:40:11.801Z,102337.27
2019-02-15T08:42:41.474Z,102340.65
2019-02-15T08:45:13.325Z,102334.33
2019-02-15T08:47:42.951Z,102329.92
2019-02-15T08:50:13.122Z,102328.82
2019-02-15T08:52:42.731Z,102328.28
2019-02-15T08:55:12.996Z,102325.31
2019-02-15T08:57:42.603Z,102320.63
2019-02-15T09:00:13.558Z,102319.78
2019-02-15T09:02:42.887Z,102322.66
2019-02-15T09:05:13.240Z,102316.84
2019-02-15T09:07:42.601Z,102309.35
2019-02-15T09:10:13.885Z,102315.73
2019-02-15T09:12:43.487Z,102313.50
2019-02-15T09:15:19.785Z,102314.36
2019-02-15T09:17:49.381Z,102313.50
2019-02-15T09:20:18.680Z,102315.07
2019-02-15T09:22:48.400Z,102311.86
2019-02-15T09:25:17.841Z,102310.02
2019-02-15T09:27:48.811Z,102308.60
2019-02-15T09:30:18.192Z,102300.92
2019-02-15T09:32:47.774Z,102300.51
2019-02-15T09:35:17.163Z,102303.23
2019-02-15T09:37:46.965Z,102302.67
2019-02-15T09:40:16.375Z,102295.67
2019-02-15T09:42:45.681Z,102297.23
2019-02-15T09:45:15.360Z,102290.55
2019-02-15T09:47:44.956Z,102292.30
2019-02-15T09:50:14.337Z,102293.30
2019-02-15T09:52:44.004Z,102301.84
2019-02-15T09:55:13.693Z,102296.88
2019-02-15T09:57:43.394Z,102295.56
2019-02-15T10:00:12.750Z,102295.17
2019-02-15T10:02:42.333Z,102289.45
2019-02-15T10:05:12.317Z,102293.45
2019-02-15T10:07:41.669Z,102294.16
2019-02-15T10:10:11.641Z,102294.78
2019-02-15T10:12:40.995Z,102291.98
2019-02-15T10:15:11.719Z,102288.19
2019-02-15T10:17:41.479Z,102287.59
2019-02-15T10:20:10.802Z,102287.71
2019-02-15T10:22:40.136Z,102279.92
2019-02-15T10:25:10.657Z,102270.26
2019-02-15T10:27:40.418Z,102265.81
2019-02-15T10:30:13.676Z,102264.50
2019-02-15T10:32:43.045Z,102268.69
2019-02-15T10:35:12.362Z,102261.05
2019-02-15T10:37:41.707Z,102259.18
2019-02-15T10:40:12.425Z,102262.22
2019-02-15T10:42:42.018Z,102255.47
2019-02-15T10:45:16.197Z,102251.75
2019-02-15T10:47:45.817Z,102247.75
2019-02-15T10:50:15.382Z,102242.64
2019-02-15T10:52:44.984Z,102249.59
2019-02-15T10:55:14.304Z,102239.45
2019-02-15T10:57:43.623Z,102235.36
2019-02-15T11:00:18.399Z,102232.73
2019-02-15T11:02:48.112Z,102227.34
2019-02-15T11:05:18.824Z,102234.53
2019-02-15T11:07:48.154Z,102220.88
2019-02-15T11:10:17.467Z,102228.38
2019-02-15T11:12:46.780Z,102224.77
2019-02-15T11:15:17.901Z,102229.25
2019-02-15T11:17:47.483Z,102234.06
2019-02-15T11:20:18.444Z,102230.12
2019-02-15T11:22:48.151Z,102223.08
2019-02-15T11:25:17.470Z,102217.77
2019-02-15T11:27:46.901Z,102217.23
2019-02-15T11:30:17.184Z,102215.16
2019-02-15T11:32:46.967Z,102211.70
2019-02-15T11:35:16.257Z,102213.53
2019-02-15T11:37:45.983Z,102210.96
2019-02-15T11:40:16.415Z,102203.94
2019-02-15T11:42:46.115Z,102190.63
2019-02-15T11:45:16.028Z,102191.77
2019-02-15T11:47:45.346Z,102185.11
2019-02-15T11:50:15.635Z,102185.64
2019-02-15T11:52:45.399Z,102181.65
2019-02-15T11:55:15.074Z,102177.85
2019-02-15T11:57:44.818Z,102170.66
2019-02-15T12:00:25.776Z,102174.03
2019-02-15T12:02:55.113Z,102177.70
2019-02-15T12:05:24.750Z,102166.48
2019-02-15T12:07:54.076Z,102168.59
2019-02-15T12:10:23.430Z,102167.81
2019-02-15T12:12:54.197Z,102166.94
2019-02-15T12:15:23.899Z,102163.77
2019-02-15T12:17:53.522Z,102164.95
2019-02-15T12:20:22.855Z,102164.66
2019-02-15T12:22:52.172Z,102164.14
2019-02-15T12:25:21.700Z,102148.86
2019-02-15T12:27:51.171Z,102156.90
2019-02-15T12:30:21.796Z,102153.41
2019-02-15T12:32:51.734Z,102152.33
2019-02-15T12:35:21.063Z,102151.97
2019-02-15T12:37:50.671Z,102147.33
2019-02-15T12:40:20.019Z,102149.67
2019-02-15T12:42:49.624Z,102147.17
2019-02-15T12:45:19.388Z,102141.45
2019-02-15T12:47:48.750Z,102143.26
2019-02-15T12:50:21.851Z,102146.02
2019-02-15T12:52:51.424Z,102138.12
2019-02-15T12:55:21.295Z,102133.16
2019-02-15T12:57:50.626Z,102133.81
2019-02-15T13:00:20.019Z,102132.25
2019-02-15T13:02:49.366Z,102132.23
2019-02-15T13:05:19.105Z,102139.70
2019-02-15T13:07:48.829Z,102135.45
2019-02-15T13:10:23.151Z,102131.14
2019-02-15T13:12:52.510Z,102130.28
2019-02-15T13:15:21.816Z,102128.28
2019-02-15T13:17:51.445Z,102119.55
2019-02-15T13:20:20.803Z,102121.22
2019-02-15T13:22:50.444Z,102121.02
2019-02-15T13:25:19.782Z,102121.47
2019-02-15T13:27:49.190Z,102121.06
2019-02-15T13:30:18.832Z,102110.17
2019-02-15T13:32:48.413Z,102106.10
2019-02-15T13:35:25.231Z,102105.97
2019-02-15T13:37:54.542Z,102108.47
2019-02-15T13:40:24.283Z,102106.12
2019-02-15T13:42:53.722Z,102107.96
2019-02-15T13:45:23.354Z,102100.05
2019-02-15T13:47:52.959Z,102097.53
2019-02-15T13:50:22.791Z,102093.14
2019-02-15T13:52:52.117Z,102095.13
2019-02-15T13:55:21.775Z,102093.95
2019-02-15T13:57:51.140Z,102099.63
2019-02-15T14:00:20.465Z,102091.09
2019-02-15T14:02:50.209Z,102087.50
2019-02-15T14:05:19.509Z,102090.13
2019-02-15T14:07:48.876Z,102083.52
2019-02-15T14:10:18.204Z,102082.22
2019-02-15T14:12:47.569Z,102076.34
2019-02-15T14:15:16.912Z,102075.59
2019-02-15T14:17:48.453Z,102064.46
2019-02-15T14:20:17.261Z,102068.69
2019-02-15T14:22:46.886Z,102060.86
2019-02-15T14:25:16.200Z,102055.63
2019-02-15T14:27:45.544Z,102059.77
2019-02-15T14:30:15.779Z,102059.97
2019-02-15T14:32:45.159Z,102059.28
2019-02-15T14:35:15.494Z,102059.69
2019-02-15T14:37:44.846Z,102055.61
2019-02-15T14:40:15.433Z,102052.91
2019-02-15T14:42:44.776Z,102051.48
2019-02-15T14:45:14.774Z,102049.38
2019-02-15T14:47:53.935Z,102043.92
2019-02-15T14:50:15.624Z,102041.14
2019-02-15T14:52:45.304Z,102036.09
2019-02-15T14:55:14.907Z,102029.01
2019-02-15T14:57:44.381Z,102037.69
2019-02-15T15:00:15.363Z,102033.06
2019-02-15T15:02:44.975Z,102025.45
2019-02-15T15:05:14.483Z,102022.67
2019-02-15T15:07:43.831Z,102020.78
2019-02-15T15:10:13.438Z,102018.48
2019-02-15T15:12:43.078Z,102021.11
2019-02-15T15:15:16.060Z,102015.69
2019-02-15T15:17:45.400Z,102012.75
2019-02-15T15:20:14.939Z,102007.02
2019-02-15T15:22:44.678Z,102003.13
2019-02-15T15:25:15.821Z,102004.06
2019-02-15T15:27:45.525Z,101998.09
2019-02-15T15:30:16.337Z,101993.58
2019-02-15T15:32:45.961Z,101993.19
2019-02-15T15:35:15.394Z,101993.55
2019-02-15T15:37:45.070Z,101989.87
2019-02-15T15:40:18.194Z,101991.44
2019-02-15T15:42:47.484Z,101984.11
2019-02-15T15:45:16.838Z,101982.27
2019-02-15T15:47:46.237Z,101976.85
2019-02-15T15:50:15.906Z,101983.45
2019-02-15T15:52:45.593Z,101980.13
2019-02-15T15:55:15.087Z,101981.75
2019-02-15T15:57:44.805Z,101978.56
2019-02-15T16:00:16.044Z,101972.64
2019-02-15T16:02:45.378Z,101970.94
2019-02-15T16:05:14.728Z,101972.02
2019-02-15T16:07:44.353Z,101971.23
2019-02-15T16:10:15.377Z,101970.42
2019-02-15T16:12:44.702Z,101978.09
2019-02-15T16:15:15.093Z,101981.98
2019-02-15T16:17:44.424Z,101979.88
2019-02-15T16:20:14.855Z,101977.68
2019-02-15T16:22:44.222Z,101982.09
2019-02-15T16:25:13.848Z,101979.70
2019-02-15T16:27:43.744Z,101984.73
2019-02-15T16:30:15.491Z,101987.58
2019-02-15T16:32:44.820Z,101986.38
2019-02-15T16:35:14.463Z,101984.98
2019-02-15T16:37:43.848Z,101993.03
2019-02-15T16:40:16.744Z,101989.78
2019-02-15T16:42:46.135Z,101988.11
2019-02-15T16:45:16.378Z,101987.41
2019-02-15T16:47:45.977Z,101984.61
2019-02-15T16:50:15.577Z,101991.05
2019-02-15T16:52:44.983Z,101996.16
2019-02-15T16:55:14.584Z,101991.92
2019-02-15T16:57:44.376Z,102003.80
2019-02-15T17:00:15.195Z,101995.05
2019-02-15T17:02:44.534Z,101998.56
2019-02-15T17:05:14.148Z,102000.83
2019-02-15T17:07:43.784Z,102005.25
2019-02-15T17:10:13.354Z,102006.33
2019-02-15T17:12:43.494Z,102008.95
2019-02-15T17:15:14.956Z,102018.27
2019-02-15T17:17:44.574Z,102017.18
2019-02-15T17:20:14.761Z,102010.25
2019-02-15T17:22:44.089Z,102009.02
2019-02-15T17:25:13.804Z,102008.36
2019-02-15T17:27:43.138Z,102007.84
2019-02-15T17:30:12.987Z,102006.70
2019-02-15T17:32:42.371Z,102010.92
2019-02-15T17:35:12.711Z,102008.92
2019-02-15T17:37:42.326Z,102017.13
2019-02-15T17:40:15.839Z,102011.41
2019-02-15T17:42:45.151Z,102013.34
2019-02-15T17:45:14.559Z,102010.47
2019-02-15T17:47:44.139Z,102014.23
2019-02-15T17:50:13.953Z,102014.72
2019-02-15T17:52:44.163Z,102015.32
2019-02-15T17:55:14.415Z,102014.23
2019-02-15T17:57:44.581Z,102010.55
2019-02-15T18:00:17.587Z,102007.89
2019-02-15T18:02:48.272Z,102009.28
2019-02-15T18:05:19.068Z,102011.88
2019-02-15T18:07:52.104Z,102017.84
2019-02-15T18:10:23.454Z,102012.05
2019-02-15T18:12:53.232Z,102015.50
2019-02-15T18:15:28.114Z,102017.09
2019-02-15T18:17:56.988Z,101981.16
2019-02-15T18:20:26.567Z,102011.08
2019-02-15T18:22:56.049Z,102012.61
2019-02-15T18:25:25.658Z,102014.89
2019-02-15T18:27:54.995Z,102012.83
2019-02-15T18:30:24.653Z,102010.57
2019-02-15T18:32:54.134Z,102010.40
2019-02-15T18:35:23.552Z,102015.88
2019-02-15T18:37:53.217Z,102012.11
2019-02-15T18:40:22.796Z,102004.75
2019-02-15T18:42:52.418Z,102007.83
2019-02-15T18:45:22.086Z,101986.66
2019-02-15T18:47:51.564Z,101999.48
2019-02-15T18:50:21.384Z,102003.08
2019-02-15T18:52:50.711Z,102003.89
2019-02-15T18:55:20.055Z,102004.88
2019-02-15T18:57:49.748Z,102007.27
2019-02-15T19:00:19.159Z,102003.58
2019-02-15T19:02:53.466Z,102007.56
2019-02-15T19:05:23.111Z,102013.95
2019-02-15T19:07:52.779Z,102003.14
2019-02-15T19:10:23.908Z,102008.56
2019-02-15T19:12:53.580Z,102008.38
2019-02-15T19:15:23.148Z,102008.02
2019-02-15T19:17:52.797Z,101999.36
2019-02-15T19:20:23.076Z,102003.80
2019-02-15T19:22:52.640Z,102007.21
2019-02-15T19:25:22.042Z,102004.46
2019-02-15T19:27:51.626Z,102001.48
2019-02-15T19:30:34.263Z,102000.32
2019-02-15T19:33:03.843Z,101992.02
2019-02-15T19:35:33.214Z,102000.98
2019-02-15T19:38:02.857Z,101996.63
2019-02-15T19:40:32.184Z,102000.23
2019-02-15T19:43:08.821Z,101999.97
2019-02-15T19:45:38.128Z,101994.09
2019-02-15T19:48:07.509Z,102007.43
2019-02-15T19:50:36.807Z,102000.26
2019-02-15T19:53:06.381Z,102000.72
2019-02-15T19:55:36.131Z,101995.24
2019-02-15T19:58:05.756Z,102002.61
2019-02-15T20:00:35.721Z,102003.27
2019-02-15T20:03:05.488Z,101994.86
2019-02-15T20:05:35.159Z,101997.66
2019-02-15T20:08:04.773Z,101993.88
2019-02-15T20:10:34.358Z,101990.64
2019-02-15T20:13:04.342Z,101993.29
2019-02-15T20:15:33.757Z,101991.22
2019-02-15T20:18:03.439Z,101988.64
2019-02-15T20:20:33.079Z,101990.20
2019-02-15T20:23:02.680Z,101988.29
2019-02-15T20:25:32.285Z,101990.91
2019-02-15T20:28:01.848Z,101991.12
2019-02-15T20:30:32.353Z,101994.76
2019-02-15T20:33:01.970Z,101991.64
2019-02-15T20:35:31.584Z,101996.72
2019-02-15T20:38:00.933Z,101995.11
2019-02-15T20:40:30.552Z,101991.42
2019-02-15T20:43:00.224Z,101987.06
2019-02-15T20:45:29.868Z,101991.59
2019-02-15T20:47:59.507Z,101986.63
2019-02-15T20:50:29.225Z,101989.78
2019-02-15T20:52:58.549Z,101992.53
2019-02-15T20:55:28.161Z,101984.47
2019-02-15T20:57:57.555Z,101983.80
2019-02-15T21:00:29.531Z,101956.10
2019-02-15T21:02:59.135Z,101981.52
2019-02-15T21:05:28.838Z,101982.66
2019-02-15T21:07:58.450Z,101983.98
2019-02-15T21:10:28.181Z,101964.70
2019-02-15T21:12:57.548Z,101968.23
2019-02-15T21:15:27.143Z,101963.84
2019-02-15T21:17:56.476Z,101962.17
2019-02-15T21:20:26.085Z,101962.27
2019-02-15T21:22:55.650Z,101968.41
2019-02-15T21:25:25.247Z,101964.45
2019-02-15T21:27:54.911Z,101959.41
2019-02-15T21:30:24.538Z,101964.58
2019-02-15T21:32:53.873Z,101968.44
2019-02-15T21:35:23.277Z,101959.05
2019-02-15T21:37:52.948Z,101951.84
2019-02-15T21:40:22.298Z,101949.70
2019-02-15T21:42:52.261Z,101957.22
2019-02-15T21:45:21.734Z,101956.88
2019-02-15T21:47:51.410Z,101952.92
2019-02-15T21:50:21.007Z,101946.00
2019-02-15T21:52:50.657Z,101947.14
2019-02-15T21:55:20.262Z,101941.48
2019-02-15T21:57:49.866Z,101940.39
2019-02-15T22:00:25.623Z,101943.67
2019-02-15T22:02:54.967Z,101938.96
2019-02-15T22:05:24.366Z,101936.62
2019-02-15T22:07:53.975Z,101933.06
2019-02-15T22:10:23.374Z,101929.73
2019-02-15T22:12:52.952Z,101935.64
2019-02-15T22:15:22.535Z,101935.87
2019-02-15T22:17:51.898Z,101934.85
2019-02-15T22:20:26.688Z,101933.77
2019-02-15T22:22:53.363Z,101928.36
2019-02-15T22:25:22.971Z,101929.61
2019-02-15T22:27:52.328Z,101925.66
2019-02-15T22:30:21.835Z,101927.20
2019-02-15T22:32:51.541Z,101921.08
2019-02-15T22:35:20.876Z,101922.00
2019-02-15T22:37:50.209Z,101924.73
2019-02-15T22:40:34.655Z,101922.78
2019-02-15T22:43:10.688Z,101923.64
2019-02-15T22:45:40.329Z,101920.38
2019-02-15T22:48:09.908Z,101926.81
2019-02-15T22:50:39.518Z,101918.99
2019-02-15T22:53:09.168Z,101922.72
2019-02-15T22:55:38.509Z,101915.50
2019-02-15T22:58:07.826Z,101913.23
2019-02-15T23:00:51.846Z,101915.97
2019-02-15T23:03:27.213Z,101912.54
2019-02-15T23:05:56.906Z,101907.98
2019-02-15T23:08:26.566Z,101911.02
2019-02-15T23:10:56.267Z,101905.52
2019-02-15T23:13:25.846Z,101908.67
2019-02-15T23:15:55.421Z,101905.64
2019-02-15T23:18:25.030Z,101909.92
2019-02-15T23:20:54.704Z,101904.41
2019-02-15T23:23:24.333Z,101908.13
2019-02-15T23:25:53.649Z,101906.56
2019-02-15T23:28:22.958Z,101908.05
2019-02-15T23:30:52.313Z,101904.93
2019-02-15T23:33:21.665Z,101904.53
2019-02-15T23:35:51.014Z,101902.58
2019-02-15T23:38:20.411Z,101899.64
2019-02-15T23:40:50.002Z,101904.11
2019-02-15T23:43:19.347Z,101900.50
2019-02-15T23:45:48.997Z,101901.88
2019-02-15T23:48:18.599Z,101903.27
2019-02-15T23:50:54.304Z,101905.71
2019-02-15T23:53:19.693Z,101901.85
2019-02-15T23:55:49.120Z,101904.16
2019-02-15T23:58:18.473Z,101901.73
